• Join FlightAware (Why Join?)
  • Login
  • US Flag 
01:13AM EDT


 

Airport Tracker/Info


-or-


 

Live Flight TrackerFlight Track Log ✈ JBU527 ✈ 13-Apr-2013 ✈ KEWR - KMCO

Flight Track Log - Related Links

Times and Time Zones

All times are in EDT time to prevent confusion due to time zone crossing. See the JBU527 flight status page for this flight to view local times or setup timezone preferences in your user account.

Time Position Orientation Groundspeed Altitude Reporting Facility
EDT Latitude Longitude Course Direction KTS MPH feet Rate Location/Type
09:37PM 40.7594 -74.1379 334° Northwest 241 277 2,900  Level FlightAware ADS-B
09:37PM 40.7632 -74.1412 327° Northwest 245 282 3,000 2,640 Climbing FlightAware ADS-B
09:37PM 40.7676 -74.1462 319° Northwest 248 285 3,300 3,000 Climbing FlightAware ADS-B
09:37PM 40.7701 -74.1498 313° West 250 288 3,400 3,000 Climbing FlightAware ADS-B
09:37PM 40.7723 -74.1538 306° West 252 290 3,600 3,420 Climbing FlightAware ADS-B
09:37PM 40.7742 -74.1581 300° West 253 291 3,800 3,300 Climbing FlightAware ADS-B
09:38PM 40.7766 -74.1660 292° West 256 295 4,100 3,300 Climbing FlightAware ADS-B
09:38PM 40.7777 -74.1719 284° West 257 296 4,300 3,000 Climbing FlightAware ADS-B
09:38PM 40.7782 -74.1779 276° West 257 296 4,500 3,720 Climbing FlightAware ADS-B
09:38PM 40.7781 -74.1839 269° West 257 296 4,800 4,260 Climbing FlightAware ADS-B
09:38PM 40.7775 -74.1898 262° West 257 296 5,000 3,720 Climbing FlightAware ADS-B
09:38PM 40.7761 -74.1962 254° West 256 295 5,300 3,960 Climbing FlightAware ADS-B
09:38PM 40.7741 -74.2023 247° West 254 292 5,600 4,980 Climbing FlightAware ADS-B
09:38PM 40.7686 -74.2126 235° Southwest 251 289 6,300 5,220 Climbing FlightAware ADS-B
09:38PM 40.7618 -74.2203 221° Southwest 243 280 7,000 5,100 Climbing FlightAware ADS-B
09:38PM 40.7506 -74.2275 206° Southwest 238 274 8,000 5,280 Climbing FlightAware ADS-B
09:39PM 40.7441 -74.2296 194° South 237 273 8,600 6,000 Climbing FlightAware ADS-B
09:39PM 40.7431 -74.2299 193° South 235 270 8,700 5,040 Climbing FlightAware ADS-B
09:39PM 40.7301 -74.2330 190° South 223 257 9,700 4,260 Climbing FlightAware ADS-B
09:39PM 40.7216 -74.2350 190° South 224 258 10,200 3,000 Climbing FlightAware ADS-B
09:39PM 40.7180 -74.2356 187° South 227 261 10,300 1,680 Climbing FlightAware ADS-B
09:39PM 40.7137 -74.2362 186° South 232 267 10,400 2,280 Climbing FlightAware ADS-B
09:40PM 40.6801 -74.2379 182° South 255 293 11,600 1,740 Climbing FlightAware ADS-B
09:40PM 40.6403 -74.2392 181° South 297 342 12,200 1,080 Climbing FlightAware ADS-B
09:40PM 40.6082 -74.2401 181° South 304 350 12,600 1,380 Climbing FlightAware ADS-B
09:41PM 40.5965 -74.2402 180° South 329 379 12,900 2,640 Climbing FlightAware ADS-B
09:41PM 40.5498 -74.2407 180° South 332 382 14,300 2,820 Climbing FlightAware ADS-B
09:41PM 40.5174 -74.2410 180° South 333 383 15,300 2,760 Climbing FlightAware ADS-B
09:42PM 40.5036 -74.2412 181° South 334 384 15,700 2,880 Climbing FlightAware ADS-B
09:42PM 40.4637 -74.2418 181° South 333 383 17,000 3,000 Climbing FlightAware ADS-B
09:42PM 40.4572 -74.2419 181° South 331 381 17,200 2,220 Climbing FlightAware ADS-B
09:43PM 40.4100 -74.2429 181° South 341 392 18,300 2,160 Climbing FlightAware ADS-B
09:43PM 40.3620 -74.2439 181° South 346 398 19,400 2,460 Climbing FlightAware ADS-B
09:44PM 40.3139 -74.2447 181° South 341 392 20,800 2,460 Climbing FlightAware ADS-B
09:44PM 40.2665 -74.2457 181° South 342 394 21,900 2,100 Climbing FlightAware ADS-B
09:45PM 40.2181 -74.2468 181° South 344 396 22,900 1,920 Climbing FlightAware ADS-B
09:45PM 40.1701 -74.2477 181° South 338 389 23,900 1,020 Climbing FlightAware ADS-B
09:46PM 40.1208 -74.2489 181° South 336 387 24,000 120 Climbing FlightAware ADS-B
09:46PM 40.0968 -74.2501 182° South 336 387 24,000  Level FlightAware ADS-B
09:46PM 40.0726 -74.2535 186° South 333 383 24,000  Level FlightAware ADS-B
09:46PM 40.0488 -74.2592 190° South 330 380 24,000 720 Level FlightAware ADS-B
09:47PM 40.0031 -74.2766 196° South 322 371 24,600 1,500 Climbing FlightAware ADS-B
09:47PM 39.9667 -74.2971 203° Southwest 315 362 25,500 1,800 Climbing FlightAware ADS-B
09:48PM 39.9390 -74.3175 209° Southwest 314 361 26,100 1,380 Climbing FlightAware ADS-B
09:48PM 39.9161 -74.3381 215° Southwest 313 360 26,500 1,440 Climbing FlightAware ADS-B
09:49PM 39.8805 -74.3720 216° Southwest 317 365 27,300 1,440 Climbing FlightAware ADS-B
09:49PM 39.8428 -74.4077 216° Southwest 321 369 28,000 1,380 Climbing FlightAware ADS-B
09:49PM 39.8249 -74.4253 217° Southwest 321 369 28,400 1,260 Climbing FlightAware ADS-B
09:50PM 39.8070 -74.4454 221° Southwest 321 369 28,700 1,140 Climbing FlightAware ADS-B
09:50PM 39.7739 -74.4890 225° Southwest 324 373 29,300 1,140 Climbing FlightAware ADS-B
09:51PM 39.7417 -74.5322 226° Southwest 329 379 29,900 1,260 Climbing FlightAware ADS-B
09:51PM 39.7098 -74.5747 226° Southwest 330 380 30,600 1,200 Climbing FlightAware ADS-B
09:52PM 39.6669 -74.6312 225° Southwest 335 386 31,300 1,140 Climbing FlightAware ADS-B
09:53PM 39.6191 -74.6943 225° Southwest 336 387 32,200 1,260 Climbing FlightAware ADS-B
09:53PM 39.5852 -74.7390 225° Southwest 334 384 32,900 1,260 Climbing FlightAware ADS-B
09:54PM 39.5527 -74.7818 225° Southwest 332 382 33,500 1,080 Climbing FlightAware ADS-B
09:54PM 39.5201 -74.8248 226° Southwest 334 384 34,000 900 Climbing FlightAware ADS-B
09:54PM 39.5034 -74.8450 223° Southwest 337 388 34,200 720 Climbing FlightAware ADS-B
09:55PM 39.4790 -74.8644 212° Southwest 347 399 34,400 720 Climbing FlightAware ADS-B
09:55PM 39.4356 -74.8944 208° Southwest 350 403 34,800 660 Climbing FlightAware ADS-B
09:56PM 39.3922 -74.9244 208° Southwest 353 406 35,100 660 Climbing FlightAware ADS-B
09:56PM 39.3475 -74.9552 208° Southwest 354 407 35,500 720 Climbing FlightAware ADS-B
09:57PM 39.3020 -74.9868 208° Southwest 356 410 35,900 480 Climbing FlightAware ADS-B
09:57PM 39.2574 -75.0174 208° Southwest 351 404 36,000 60 Climbing FlightAware ADS-B
09:58PM 39.2125 -75.0486 208° Southwest 352 405 36,000  Level FlightAware ADS-B
09:58PM 39.1685 -75.0791 208° Southwest 356 410 36,000  Level FlightAware ADS-B
09:59PM 39.1246 -75.1096 208° Southwest 357 411 36,000  Level FlightAware ADS-B
09:59PM 39.0810 -75.1397 205° Southwest 356 410 36,000  Level FlightAware ADS-B
10:00PM 39.0367 -75.1701 208° Southwest 356 410 36,000  Level FlightAware ADS-B
10:00PM 38.9927 -75.2005 208° Southwest 356 410 36,000  Level FlightAware ADS-B
10:01PM 38.9489 -75.2307 208° Southwest 355 409 36,000  Level FlightAware ADS-B
10:01PM 38.9051 -75.2607 208° Southwest 355 409 36,000  Level FlightAware ADS-B
10:02PM 38.8615 -75.2907 208° Southwest 357 411 36,000  Level FlightAware ADS-B
10:02PM 38.8163 -75.3216 208° Southwest 358 412 36,000  Level FlightAware ADS-B
10:03PM 38.7721 -75.3518 208° Southwest 359 413 36,000  Level FlightAware ADS-B
10:04PM 38.7067 -75.3964 208° Southwest 359 413 36,000  Level FlightAware ADS-B
10:04PM 38.6616 -75.4271 208° Southwest 359 413 36,000  Level FlightAware ADS-B
10:05PM 38.6175 -75.4570 208° Southwest 358 412 36,000  Level FlightAware ADS-B
10:05PM 38.5730 -75.4874 208° Southwest 358 412 36,000  Level FlightAware ADS-B
10:06PM 38.5291 -75.5172 208° Southwest 358 412 36,000  Level FlightAware ADS-B
10:06PM 38.4848 -75.5471 208° Southwest 358 412 36,000  Level FlightAware ADS-B
10:07PM 38.4405 -75.5770 208° Southwest 358 412 36,000  Level FlightAware ADS-B
10:07PM 38.3943 -75.6082 208° Southwest 359 413 36,000  Level FlightAware ADS-B
10:08PM 38.3496 -75.6384 208° Southwest 359 413 36,000  Level FlightAware ADS-B
10:08PM 38.2998 -75.6720 208° Southwest 359 413 36,000  Level FlightAware ADS-B
10:09PM 38.2530 -75.7033 208° Southwest 360 414 36,000  Level FlightAware ADS-B
10:09PM 38.2088 -75.7331 208° Southwest 361 415 36,000  Level FlightAware ADS-B
10:10PM 38.1644 -75.7629 208° Southwest 361 415 36,000  Level FlightAware ADS-B
10:10PM 38.1191 -75.7932 208° Southwest 361 415 36,000  Level FlightAware ADS-B
10:11PM 38.0721 -75.8247 208° Southwest 362 417 36,000  Level FlightAware ADS-B
10:11PM 38.0174 -75.8611 208° Southwest 362 417 36,000  Level FlightAware ADS-B
10:12PM 37.9725 -75.8910 208° Southwest 363 418 36,000  Level FlightAware ADS-B
10:12PM 37.9344 -75.9164 208° Southwest 363 418 36,000  Level FlightAware ADS-B
10:13PM 37.8896 -75.9461 208° Southwest 364 419 36,000  Level FlightAware ADS-B
10:13PM 37.8445 -75.9761 208° Southwest 363 418 36,000  Level FlightAware ADS-B
10:14PM 37.7997 -76.0057 208° Southwest 363 418 36,000  Level FlightAware ADS-B
10:14PM 37.7535 -76.0363 208° Southwest 363 418 36,000  Level FlightAware ADS-B
10:15PM 37.7063 -76.0676 208° Southwest 363 418 36,000  Level FlightAware ADS-B
10:16PM 37.6170 -76.1264 208° Southwest 363 418 36,000  Level FlightAware ADS-B
10:16PM 37.5722 -76.1559 208° Southwest 364 419 36,000  Level FlightAware ADS-B
10:17PM 37.5261 -76.1864 208° Southwest 365 420 36,000  Level FlightAware ADS-B
10:17PM 37.4811 -76.2160 208° Southwest 366 421 36,000  Level FlightAware ADS-B
10:18PM 37.4356 -76.2459 208° Southwest 367 422 36,000  Level FlightAware ADS-B
10:18PM 37.3893 -76.2762 207° Southwest 368 423 36,000  Level FlightAware ADS-B
10:19PM 37.3440 -76.3058 207° Southwest 367 422 36,000  Level FlightAware ADS-B
10:19PM 37.2985 -76.3357 208° Southwest 367 422 36,000  Level FlightAware ADS-B
10:20PM 37.2532 -76.3653 207° Southwest 368 423 36,000  Level FlightAware ADS-B
10:20PM 37.2058 -76.3960 207° Southwest 368 423 36,000  Level FlightAware ADS-B
10:21PM 37.1595 -76.4260 207° Southwest 369 425 36,000  Level FlightAware ADS-B
10:21PM 37.1127 -76.4562 207° Southwest 372 428 36,000  Level FlightAware ADS-B
10:22PM 37.0658 -76.4866 207° Southwest 372 428 36,000  Level FlightAware ADS-B
10:22PM 37.0192 -76.5168 207° Southwest 372 428 36,000  Level FlightAware ADS-B
10:23PM 36.9760 -76.5450 208° Southwest 364 419 36,000  Level FlightAware
10:23PM 36.9496 -76.5619 207° Southwest 372 428 36,000  Level FlightAware ADS-B
10:24PM 36.8875 -76.6019 207° Southwest 370 426 36,000  Level FlightAware ADS-B
10:25PM 36.7830 -76.6690 207° Southwest 365 420 36,000  Level FlightAware
10:26PM 36.7220 -76.7080 207° Southwest 366 421 36,000  Level FlightAware
10:26PM 36.6600 -76.7480 207° Southwest 367 422 36,000  Level FlightAware
10:27PM 36.5950 -76.7890 207° Southwest 368 423 36,000  Level FlightAware
10:28PM 36.5060 -76.8460 207° Southwest 376 433 36,000  Level FlightAware
10:29PM 36.4420 -76.8880 208° Southwest 376 433 36,000  Level FlightAware
10:29PM 36.3790 -76.9270 206° Southwest 377 434 36,000  Level FlightAware
10:30PM 36.3110 -76.9700 207° Southwest 378 435 36,000  Level FlightAware
10:31PM 36.2310 -77.0210 207° Southwest 379 436 36,000  Level FlightAware
10:32PM 36.1770 -77.0550 207° Southwest 379 436 36,000  Level FlightAware
10:33PM 36.1110 -77.0970 207° Southwest 379 436 36,000  Level FlightAware
10:33PM 36.0580 -77.1300 207° Southwest 379 436 36,000  Level FlightAware
10:34PM 36.0050 -77.1640 207° Southwest 379 436 36,000  Level FlightAware
10:34PM 35.9030 -77.2270 207° Southwest 386 444 36,000  Level FlightAware
10:35PM 35.8240 -77.2770 207° Southwest 388 447 36,000  Level FlightAware
10:36PM 35.7240 -77.3390 207° Southwest 381 438 36,000  Level FlightAware
10:37PM 35.6700 -77.3730 207° Southwest 381 438 36,000  Level FlightAware
10:38PM 35.6170 -77.4060 207° Southwest 381 438 36,000  Level FlightAware
10:39PM 35.5500 -77.4480 207° Southwest 381 438 36,000  Level FlightAware
10:39PM 35.4970 -77.4820 208° Southwest 381 438 36,000  Level FlightAware
10:40PM 35.4430 -77.5150 206° Southwest 381 438 36,000  Level FlightAware
10:41PM 35.3900 -77.5480 207° Southwest 381 438 36,000  Level FlightAware
10:41PM 35.3370 -77.5820 208° Southwest 381 438 36,000  Level FlightAware
10:42PM 35.2830 -77.6150 207° Southwest 381 438 36,000  Level FlightAware
10:43PM 35.2160 -77.6570 207° Southwest 381 438 36,000  Level FlightAware
10:43PM 35.1630 -77.6900 207° Southwest 381 438 36,000  Level FlightAware
10:44PM 35.1100 -77.7230 207° Southwest 381 438 36,000  Level FlightAware
10:45PM 35.0560 -77.7570 207° Southwest 381 438 36,000  Level FlightAware
10:45PM 35.0030 -77.7900 207° Southwest 381 438 36,000  Level FlightAware
10:46PM 34.8872 -78.0556 207° Southwest 383 441 36,000 -120 Level Washington Center
10:47PM 34.7997 -78.1517 222° Southwest 383 441 35,900 -60 Descending Washington Center
10:49PM 34.6661 -78.2911 221° Southwest 381 438 35,900  Level Jacksonville Center
10:50PM 34.5858 -78.3736 220° Southwest 381 438 36,000  Climbing Jacksonville Center
10:51PM 34.5069 -78.4456 217° Southwest 381 438 36,000  Level Jacksonville Center
10:52PM 34.4244 -78.5328 221° Southwest 390 449 36,000  Level Jacksonville Center
10:53PM 34.3417 -78.6150 219° Southwest 390 449 36,000  Level Jacksonville Center
10:54PM 34.2572 -78.7022 220° Southwest 395 455 36,000  Level Jacksonville Center
10:55PM 34.1722 -78.7864 219° Southwest 395 455 36,000 -60 Level Jacksonville Center
10:56PM 34.0894 -78.8681 219° Southwest 395 455 35,900 -60 Descending Jacksonville Center
10:57PM 34.0083 -78.9494 220° Southwest 390 449 35,900  Level Jacksonville Center
10:58PM 33.9233 -79.0333 219° Southwest 390 449 36,000  Climbing Jacksonville Center
10:59PM 33.8403 -79.1144 219° Southwest 390 449 36,000  Level Jacksonville Center
11:05PM 33.3510 -79.5960 219° Southwest 385 443 36,000  Level FlightAware
11:06PM 33.2610 -79.6840 219° Southwest 383 441 36,000 -60 Level FlightAware
11:07PM 33.1881 -79.7528 219° Southwest 389 448 35,900  Descending Jacksonville Center
11:08PM 33.1044 -79.8350 219° Southwest 389 448 36,000  Climbing Jacksonville Center
11:09PM 33.0228 -79.9122 218° Southwest 389 448 36,000  Level Jacksonville Center
11:10PM 32.9411 -79.9892 218° Southwest 389 448 36,000  Level Jacksonville Center
11:11PM 32.8469 -80.0714 216° Southwest 389 448 36,000 -60 Level Jacksonville Center
11:12PM 32.7544 -80.1383 211° Southwest 389 448 35,900 -60 Descending Jacksonville Center
11:13PM 32.6661 -80.2053 213° Southwest 389 448 35,900  Level Jacksonville Center
11:18PM 32.1580 -80.5780 213° Southwest 387 445 36,000  Climbing FlightAware
11:19PM 32.1060 -80.6160 212° Southwest 387 445 36,000  Level FlightAware
11:20PM 32.0540 -80.6540 212° Southwest 387 445 36,000  Level FlightAware
11:20PM 32.0030 -80.6920 212° Southwest 387 445 36,000  Level FlightAware
11:21PM 31.9380 -80.7400 212° Southwest 387 445 36,000  Level FlightAware
11:22PM 31.8160 -80.7100 168° South 36,000  Level FlightAware
11:23PM 31.6440 -80.7330 186° South 420 483 36,000  Level FlightAware
11:24PM 31.5460 -80.7470 187° South 419 482 36,000  Level FlightAware
11:25PM 31.4820 -80.7560 187° South 420 483 36,000  Level FlightAware
11:26PM 31.3680 -80.7710 186° South 422 486 36,000  Level FlightAware
11:26PM 31.3020 -80.7790 186° South 422 486 36,000  Level FlightAware
11:27PM 31.2200 -80.7890 186° South 422 486 36,000  Level FlightAware
11:28PM 31.1140 -80.8060 188° South 421 484 36,000  Level FlightAware
11:28PM 31.0480 -80.8140 186° South 421 484 36,000  Level FlightAware
11:29PM 30.9830 -80.8220 186° South 421 484 36,000  Level FlightAware
11:30PM 30.9170 -80.8300 186° South 421 484 36,000  Level FlightAware
11:31PM 30.8340 -80.8400 186° South 421 484 36,000  Level FlightAware
11:31PM 30.7690 -80.8480 186° South 421 484 36,000  Level FlightAware
11:32PM 30.7030 -80.8560 186° South 421 484 36,000  Level FlightAware
11:33PM 30.6370 -80.8640 186° South 421 484 36,000  Level FlightAware
11:33PM 30.5710 -80.8720 186° South 421 484 36,000  Level FlightAware
11:34PM 30.4890 -80.8820 186° South 421 484 36,000  Level FlightAware
11:35PM 30.4230 -80.8900 186° South 421 484 36,000  Level FlightAware
11:35PM 30.3570 -80.8980 186° South 421 484 36,000  Level FlightAware
11:36PM 30.2910 -80.9060 186° South 421 484 36,000  Level FlightAware
11:37PM 30.2250 -80.9140 186° South 421 484 36,000 -5,580 Level FlightAware
11:38PM 29.9347 -80.9703 186° South 418 481 26,400 -2,760 Descending Jacksonville Center
11:43PM 29.3420 -81.0460 186° South 371 427 18,000 -1,440 Descending FlightAware
11:44PM 29.2740 -81.0540 186° South 358 412 17,500 -360 Descending FlightAware
11:45PM 29.2180 -81.0610 186° South 358 412 17,500 -1,980 Level FlightAware
11:46PM 29.1190 -81.0750 187° South 343 395 14,400 -3,000 Descending FlightAware
11:46PM 29.0450 -81.0850 187° South 328 377 12,500 -1,800 Descending FlightAware
11:47PM 28.9760 -81.0920 185° South 328 377 11,900 -1,140 Descending FlightAware
11:48PM 28.9120 -81.1030 189° South 329 379 10,900 -1,440 Descending FlightAware
11:48PM 28.8500 -81.1130 188° South 310 357 9,900 -1,200 Descending FlightAware
11:49PM 28.8120 -81.1200 189° South 309 356 9,500 -900 Descending FlightAware
11:50PM 28.7520 -81.1290 187° South 292 336 8,900 -540 Descending FlightAware
11:50PM 28.7130 -81.1350 188° South 292 336 8,900  Level FlightAware
11:51PM 28.6790 -81.1410 189° South 290 334 8,900  Level FlightAware
11:51PM 28.6370 -81.1480 188° South 289 333 8,900  Level FlightAware
11:52PM 28.5970 -81.1540 188° South 290 334 8,900  Level FlightAware
11:52PM 28.5630 -81.1600 189° South 291 335 8,900  Level FlightAware
11:52PM 28.5230 -81.1660 188° South 292 336 8,900 -240 Level FlightAware
11:53PM 28.4890 -81.1720 189° South 289 333 8,700 -1,020 Descending FlightAware
11:53PM 28.4510 -81.1780 188° South 280 322 8,000 -1,560 Descending FlightAware
11:54PM 28.4170 -81.1830 187° South 280 322 7,300 -1,680 Descending FlightAware
11:54PM 28.3970 -81.1860 188° South 279 321 6,900 -1,380 Descending FlightAware
11:55PM 28.3580 -81.1870 181° South 272 313 6,300 -1,440 Descending FlightAware
11:55PM 28.3180 -81.1870 180° South 272 313 5,500 -1,440 Descending FlightAware
11:55PM 28.2870 -81.1950 193° South 269 310 5,000 -900 Descending FlightAware
11:56PM 28.2760 -81.2090 228° Southwest 253 291 4,900 -420 Descending FlightAware
11:56PM 28.2710 -81.2270 252° West 243 280 4,800 -600 Descending FlightAware
11:56PM 28.2690 -81.2590 266° West 222 255 4,500 -840 Descending FlightAware
11:57PM 28.2670 -81.2820 264° West 211 243 4,200 -1,620 Descending FlightAware
11:57PM 28.2760 -81.3190 285° West 200 230 2,900 -2,040 Descending FlightAware
11:58PM 28.2850 -81.3220 344° North 192 221 2,500 -1,380 Descending FlightAware
11:58PM 28.3060 -81.3210 North 166 191 2,100 -960 Descending FlightAware
11:58PM 28.3210 -81.3210 360° North 147 169 1,800 -840 Descending FlightAware
11:59PM 28.3380 -81.3210 360° North 130 150 1,500 -660 Descending FlightAware
11:59PM 28.3560 -81.3210 360° North 131 151 1,200 -720 Descending FlightAware
12:00AM 28.3750 -81.3210 360° North 132 152 800 -660 Descending FlightAware
12:00AM 28.3900 -81.3220 357° North 132 152 600 -660 Descending FlightAware
12:01AM 28.4080 -81.3220 360° North 130 150 200 -840 Descending FlightAware
12:01AM 28.4200 -81.3220 360° North 128 147 -600 Descending FlightAware